createdAt,value
2018-12-14T00:00:32.484Z,102718.37
2018-12-14T00:03:00.780Z,102711.81
2018-12-14T00:05:29.052Z,102709.65
2018-12-14T00:07:57.316Z,102716.05
2018-12-14T00:10:25.713Z,102713.22
2018-12-14T00:12:53.952Z,102715.90
2018-12-14T00:15:22.268Z,102712.88
2018-12-14T00:17:50.501Z,102721.59
2018-12-14T00:20:18.812Z,102726.03
2018-12-14T00:22:47.051Z,102719.38
2018-12-14T00:25:15.243Z,102719.94
2018-12-14T00:27:43.540Z,102711.41
2018-12-14T00:30:11.905Z,102714.84
2018-12-14T00:32:40.172Z,102721.14
2018-12-14T00:35:08.408Z,102720.28
2018-12-14T00:37:36.649Z,102726.34
2018-12-14T00:40:05.105Z,102734.25
2018-12-14T00:42:33.348Z,102724.93
2018-12-14T00:45:01.641Z,102732.84
2018-12-14T00:47:29.928Z,102725.84
2018-12-14T00:49:58.269Z,102722.52
2018-12-14T00:52:26.464Z,102725.39
2018-12-14T00:54:54.764Z,102721.55
2018-12-14T00:57:23.068Z,102727.91
2018-12-14T00:59:51.323Z,102727.05
2018-12-14T01:02:24.940Z,102727.41
2018-12-14T01:04:53.204Z,102722.20
2018-12-14T01:07:21.483Z,102724.83
2018-12-14T01:09:50.003Z,102724.93
2018-12-14T01:12:18.188Z,102725.08
2018-12-14T01:14:46.371Z,102730.22
2018-12-14T01:17:14.847Z,102727.09
2018-12-14T01:19:43.464Z,102723.22
2018-12-14T01:22:11.662Z,102725.99
2018-12-14T01:24:39.950Z,102723.12
2018-12-14T01:27:08.179Z,102725.53
2018-12-14T01:29:36.388Z,102723.31
2018-12-14T01:32:04.672Z,102719.19
2018-12-14T01:34:33.049Z,102719.23
2018-12-14T01:37:01.404Z,102718.48
2018-12-14T01:39:29.712Z,102721.20
2018-12-14T01:41:57.980Z,102724.98
2018-12-14T01:44:26.160Z,102725.38
2018-12-14T01:46:54.503Z,102725.38
2018-12-14T01:49:22.688Z,102720.09
2018-12-14T01:51:50.996Z,102724.63
2018-12-14T01:54:19.256Z,102720.03
2018-12-14T01:56:47.620Z,102722.00
2018-12-14T01:59:15.909Z,102716.61
2018-12-14T02:01:44.292Z,102720.84
2018-12-14T02:04:12.548Z,102721.50
2018-12-14T02:06:40.835Z,102718.48
2018-12-14T02:09:09.085Z,102725.48
2018-12-14T02:11:37.288Z,102715.75
2018-12-14T02:14:05.568Z,102726.44
2018-12-14T02:16:33.788Z,102718.13
2018-12-14T02:19:01.983Z,102722.72
2018-12-14T02:21:30.267Z,102719.38
2018-12-14T02:23:58.493Z,102716.11
2018-12-14T02:26:26.852Z,102717.57
2018-12-14T02:28:55.132Z,102717.72
2018-12-14T02:31:23.436Z,102717.62
2018-12-14T02:33:51.614Z,102714.23
2018-12-14T02:36:20.064Z,102709.40
2018-12-14T02:38:48.334Z,102711.87
2018-12-14T02:41:16.680Z,102713.23
2018-12-14T02:43:45.137Z,102711.02
2018-12-14T02:46:13.356Z,102715.14
2018-12-14T02:48:41.640Z,102707.98
2018-12-14T02:51:09.916Z,102705.77
2018-12-14T02:53:38.148Z,102711.45
2018-12-14T02:56:06.472Z,102708.48
2018-12-14T02:58:34.724Z,102699.61
2018-12-14T03:01:02.925Z,102703.49
2018-12-14T03:03:31.149Z,102696.95
2018-12-14T03:05:59.494Z,102695.83
2018-12-14T03:08:27.692Z,102701.22
2018-12-14T03:10:55.925Z,102697.23
2018-12-14T03:13:24.152Z,102692.55
2018-12-14T03:15:52.376Z,102692.76
2018-12-14T03:18:20.604Z,102686.00
2018-12-14T03:20:48.940Z,102687.16
2018-12-14T03:23:17.181Z,102686.25
2018-12-14T03:25:45.956Z,102683.08
2018-12-14T03:28:14.179Z,102686.44
2018-12-14T03:30:42.449Z,102689.02
2018-12-14T03:33:10.726Z,102691.28
2018-12-14T03:35:39.000Z,102690.16
2018-12-14T03:38:07.351Z,102683.06
2018-12-14T03:40:35.694Z,102692.44
2018-12-14T03:43:03.889Z,102694.92
2018-12-14T03:45:32.120Z,102693.41
2018-12-14T03:48:00.353Z,102691.74
2018-12-14T03:50:28.730Z,102685.60
2018-12-14T03:52:57.145Z,102687.31
2018-12-14T03:55:25.428Z,102681.47
2018-12-14T03:57:54.495Z,102688.42
2018-12-14T04:00:22.774Z,102681.21
2018-12-14T04:02:51.532Z,102682.92
2018-12-14T04:05:20.126Z,102673.55
2018-12-14T04:07:48.441Z,102679.50
2018-12-14T04:10:16.664Z,102682.20
2018-12-14T04:12:44.881Z,102682.05
2018-12-14T04:15:13.351Z,102679.66
2018-12-14T04:17:41.601Z,102683.95
2018-12-14T04:20:10.144Z,102690.75
2018-12-14T04:22:38.365Z,102684.99
2018-12-14T04:25:06.766Z,102681.97
2018-12-14T04:27:35.265Z,102684.61
2018-12-14T04:30:03.758Z,102690.20
2018-12-14T04:32:31.976Z,102689.64
2018-12-14T04:35:00.401Z,102696.96
2018-12-14T04:37:28.616Z,102685.73
2018-12-14T04:39:56.846Z,102687.91
2018-12-14T04:42:25.428Z,102691.47
2018-12-14T04:44:53.668Z,102694.33
2018-12-14T04:47:21.955Z,102695.59
2018-12-14T04:49:50.585Z,102692.62
2018-12-14T04:52:18.812Z,102688.84
2018-12-14T04:54:47.077Z,102692.45
2018-12-14T04:57:15.244Z,102692.16
2018-12-14T04:59:43.477Z,102688.04
2018-12-14T05:02:11.850Z,102689.41
2018-12-14T05:04:40.080Z,102684.37
2018-12-14T05:07:08.392Z,102675.91
2018-12-14T05:09:36.582Z,102680.94
2018-12-14T05:12:05.037Z,102679.20
2018-12-14T05:14:33.536Z,102681.16
2018-12-14T05:17:01.798Z,102684.70
2018-12-14T05:19:30.073Z,102673.58
2018-12-14T05:21:58.674Z,102679.42
2018-12-14T05:24:26.960Z,102684.00
2018-12-14T05:26:56.069Z,102674.73
2018-12-14T05:29:24.340Z,102674.38
2018-12-14T05:31:52.587Z,102665.81
2018-12-14T05:34:20.832Z,102673.47
2018-12-14T05:36:49.064Z,102677.20
2018-12-14T05:39:17.351Z,102685.05
2018-12-14T05:41:45.596Z,102677.36
2018-12-14T05:44:13.840Z,102682.69
2018-12-14T05:46:42.057Z,102680.47
2018-12-14T05:49:10.284Z,102676.63
2018-12-14T05:51:38.536Z,102670.90
2018-12-14T05:54:06.774Z,102678.41
2018-12-14T05:56:35.072Z,102666.86
2018-12-14T05:59:03.396Z,102674.25
2018-12-14T06:01:31.777Z,102674.14
2018-12-14T06:04:00.301Z,102679.23
2018-12-14T06:06:28.516Z,102677.05
2018-12-14T06:08:56.768Z,102680.30
2018-12-14T06:11:25.056Z,102679.12
2018-12-14T06:13:53.297Z,102679.58
2018-12-14T06:16:21.500Z,102676.95
2018-12-14T06:18:49.741Z,102679.92
2018-12-14T06:21:17.940Z,102677.05
2018-12-14T06:23:46.188Z,102676.47
2018-12-14T06:26:14.425Z,102674.89
2018-12-14T06:28:42.656Z,102675.80
2018-12-14T06:31:10.873Z,102675.27
2018-12-14T06:33:39.088Z,102681.16
2018-12-14T06:36:07.356Z,102678.64
2018-12-14T06:38:35.560Z,102669.02
2018-12-14T06:41:03.797Z,102678.53
2018-12-14T06:43:32.032Z,102672.64
2018-12-14T06:46:00.248Z,102675.21
2018-12-14T06:48:28.504Z,102684.13
2018-12-14T06:50:57.130Z,102684.13
2018-12-14T06:53:25.376Z,102679.02
2018-12-14T06:55:53.612Z,102686.23
2018-12-14T06:58:21.816Z,102680.44
2018-12-14T07:00:50.074Z,102688.45
2018-12-14T07:03:18.277Z,102685.98
2018-12-14T07:05:46.488Z,102691.53
2018-12-14T07:08:14.717Z,102699.67
2018-12-14T07:10:42.927Z,102688.20
2018-12-14T07:13:11.177Z,102691.08
2018-12-14T07:15:39.489Z,102694.85
2018-12-14T07:18:07.736Z,102697.61
2018-12-14T07:20:36.140Z,102697.94
2018-12-14T07:23:04.336Z,102692.95
2018-12-14T07:25:32.676Z,102699.13
2018-12-14T07:28:00.884Z,102700.73
2018-12-14T07:30:29.112Z,102705.31
2018-12-14T07:32:57.331Z,102709.02
2018-12-14T07:35:25.573Z,102700.16
2018-12-14T07:37:53.783Z,102703.80
2018-12-14T07:40:22.078Z,102713.66
2018-12-14T07:42:50.276Z,102710.12
2018-12-14T07:45:18.644Z,102717.66
2018-12-14T07:47:46.829Z,102711.59
2018-12-14T07:50:15.020Z,102714.33
2018-12-14T07:52:43.280Z,102719.61
2018-12-14T07:55:11.469Z,102718.05
2018-12-14T07:57:39.711Z,102710.72
2018-12-14T08:00:08.872Z,102713.74
2018-12-14T08:02:37.328Z,102713.07
2018-12-14T08:05:06.448Z,102722.39
2018-12-14T08:07:34.876Z,102730.06
2018-12-14T08:10:03.448Z,102726.03
2018-12-14T08:12:31.744Z,102728.36
2018-12-14T08:14:59.956Z,102734.36
2018-12-14T08:17:28.190Z,102740.36
2018-12-14T08:19:56.384Z,102735.92
2018-12-14T08:22:24.733Z,102746.56
2018-12-14T08:24:52.957Z,102747.22
2018-12-14T08:27:21.145Z,102739.05
2018-12-14T08:29:49.380Z,102746.51
2018-12-14T08:32:18.179Z,102751.25
2018-12-14T08:34:50.937Z,102758.95
2018-12-14T08:37:16.662Z,102760.20
2018-12-14T08:39:44.873Z,102749.58
2018-12-14T08:42:13.101Z,102755.62
2018-12-14T08:44:41.409Z,102757.10
2018-12-14T08:47:09.768Z,102756.95
2018-12-14T08:49:37.958Z,102757.36
2018-12-14T08:52:06.188Z,102751.41
2018-12-14T08:54:34.412Z,102753.88
2018-12-14T08:57:02.752Z,102762.00
2018-12-14T08:59:30.952Z,102755.64
2018-12-14T09:01:59.172Z,102762.02
2018-12-14T09:04:27.391Z,102764.64
2018-12-14T09:06:55.626Z,102777.45
2018-12-14T09:09:23.814Z,102772.65
2018-12-14T09:11:52.008Z,102767.84
2018-12-14T09:14:20.764Z,102777.31
2018-12-14T09:16:48.956Z,102772.05
2018-12-14T09:19:17.185Z,102780.13
2018-12-14T09:21:45.533Z,102772.73
2018-12-14T09:24:13.752Z,102779.23
2018-12-14T09:26:41.965Z,102774.63
2018-12-14T09:29:10.556Z,102782.07
2018-12-14T09:31:39.044Z,102790.33
2018-12-14T09:34:07.353Z,102783.39
2018-12-14T09:36:35.699Z,102790.88
2018-12-14T09:39:05.668Z,102779.23
2018-12-14T09:41:33.941Z,102790.86
2018-12-14T09:44:02.141Z,102794.06
2018-12-14T09:46:36.882Z,102791.91
2018-12-14T09:49:00.716Z,102802.09
2018-12-14T09:51:29.020Z,102808.00
2018-12-14T09:53:57.332Z,102801.59
2018-12-14T09:56:25.625Z,102802.63
2018-12-14T09:58:53.853Z,102812.03
2018-12-14T10:01:22.057Z,102807.41
2018-12-14T10:03:50.540Z,102810.91
2018-12-14T10:06:19.235Z,102810.30
2018-12-14T10:08:47.481Z,102809.40
2018-12-14T10:11:16.133Z,102815.26
2018-12-14T10:13:44.336Z,102812.77
2018-12-14T10:16:13.249Z,102813.24
2018-12-14T10:18:41.736Z,102804.57
2018-12-14T10:21:10.096Z,102804.36
2018-12-14T10:23:38.393Z,102804.50
2018-12-14T10:26:06.620Z,102804.80
2018-12-14T10:28:34.824Z,102804.22
2018-12-14T10:31:03.021Z,102805.70
2018-12-14T10:33:31.264Z,102795.75
2018-12-14T10:35:59.457Z,102789.67
2018-12-14T10:38:27.701Z,102798.77
2018-12-14T10:40:55.893Z,102798.61
2018-12-14T10:43:24.136Z,102789.50
2018-12-14T10:45:52.768Z,102791.91
2018-12-14T10:48:21.208Z,102793.39
2018-12-14T10:50:49.440Z,102790.00
2018-12-14T10:53:17.672Z,102794.84
2018-12-14T10:55:45.909Z,102796.91
2018-12-14T10:58:14.220Z,102799.44
2018-12-14T11:00:47.724Z,102797.72
2018-12-14T11:03:15.953Z,102800.34
2018-12-14T11:05:44.151Z,102802.78
2018-12-14T11:08:12.344Z,102806.70
2018-12-14T11:10:40.585Z,102802.38
2018-12-14T11:13:09.696Z,102801.10
2018-12-14T11:15:37.880Z,102797.09
2018-12-14T11:18:06.209Z,102798.48
2018-12-14T11:20:34.439Z,102804.80
2018-12-14T11:23:02.660Z,102801.55
2018-12-14T11:25:30.845Z,102803.13
2018-12-14T11:27:59.091Z,102804.34
2018-12-14T11:30:27.273Z,102807.59
2018-12-14T11:32:55.538Z,102803.09
2018-12-14T11:35:23.740Z,102802.91
2018-12-14T11:37:51.920Z,102807.06
2018-12-14T11:40:20.145Z,102809.49
2018-12-14T11:42:48.388Z,102810.13
2018-12-14T11:45:16.588Z,102808.28
2018-12-14T11:47:44.782Z,102811.58
2018-12-14T11:50:13.020Z,102803.90
2018-12-14T11:52:41.302Z,102802.95
2018-12-14T11:55:10.489Z,102813.24
2018-12-14T11:57:38.717Z,102812.88
2018-12-14T12:00:10.981Z,102804.17
2018-12-14T12:02:43.132Z,102804.00
2018-12-14T12:05:10.292Z,102794.42
2018-12-14T12:07:39.772Z,102788.38
2018-12-14T12:10:09.868Z,102793.61
2018-12-14T12:12:38.740Z,102791.79
2018-12-14T12:15:07.350Z,102798.59
2018-12-14T12:17:37.132Z,102797.83
2018-12-14T12:20:05.848Z,102798.45
2018-12-14T12:22:34.088Z,102795.11
2018-12-14T12:25:02.416Z,102793.16
2018-12-14T12:27:30.661Z,102789.94
2018-12-14T12:29:58.909Z,102798.78
2018-12-14T12:32:27.248Z,102799.22
2018-12-14T12:34:55.488Z,102802.71
2018-12-14T12:37:23.789Z,102801.23
2018-12-14T12:39:51.980Z,102806.97
2018-12-14T12:42:20.213Z,102804.53
2018-12-14T12:44:48.452Z,102802.73
2018-12-14T12:47:16.885Z,102804.95
2018-12-14T12:49:45.112Z,102810.86
2018-12-14T12:52:13.323Z,102809.55
2018-12-14T12:54:41.598Z,102812.75
2018-12-14T12:57:09.839Z,102806.93
2018-12-14T12:59:38.172Z,102806.93
2018-12-14T13:02:06.477Z,102801.06
2018-12-14T13:04:35.044Z,102794.92
2018-12-14T13:07:03.349Z,102806.48
2018-12-14T13:09:31.588Z,102804.31
2018-12-14T13:11:59.773Z,102802.78
2018-12-14T13:14:28.033Z,102789.30
2018-12-14T13:16:56.323Z,102791.87
2018-12-14T13:19:24.553Z,102790.82
2018-12-14T13:21:52.771Z,102792.17
2018-12-14T13:24:20.996Z,102791.59
2018-12-14T13:26:49.236Z,102794.29
2018-12-14T13:29:17.488Z,102808.50
2018-12-14T13:31:45.709Z,102810.41
2018-12-14T13:34:13.953Z,102818.34
2018-12-14T13:36:42.181Z,102819.02
2018-12-14T13:39:10.373Z,102816.84
2018-12-14T13:41:38.769Z,102825.45
2018-12-14T13:44:07.111Z,102825.92
2018-12-14T13:46:35.315Z,102828.91
2018-12-14T13:49:03.556Z,102828.97
2018-12-14T13:51:31.933Z,102834.63
2018-12-14T13:54:00.117Z,102833.11
2018-12-14T13:56:28.342Z,102835.12
2018-12-14T13:58:56.564Z,102837.15
2018-12-14T14:01:24.823Z,102837.30
2018-12-14T14:03:53.052Z,102832.66
2018-12-14T14:06:21.265Z,102846.53
2018-12-14T14:08:49.456Z,102840.33
2018-12-14T14:11:17.704Z,102844.11
2018-12-14T14:13:45.889Z,102839.77
2018-12-14T14:16:14.164Z,102852.29
2018-12-14T14:18:42.413Z,102853.91
2018-12-14T14:21:10.648Z,102851.64
2018-12-14T14:23:38.937Z,102854.06
2018-12-14T14:26:07.172Z,102843.31
2018-12-14T14:28:35.442Z,102844.42
2018-12-14T14:31:03.642Z,102840.44
2018-12-14T14:33:31.864Z,102849.37
2018-12-14T14:36:00.054Z,102846.03
2018-12-14T14:38:28.240Z,102851.08
2018-12-14T14:40:56.477Z,102849.77
2018-12-14T14:43:24.741Z,102861.08
2018-12-14T14:45:52.939Z,102854.86
2018-12-14T14:48:21.120Z,102864.50
2018-12-14T14:50:49.383Z,102876.21
2018-12-14T14:53:17.568Z,102869.85
2018-12-14T14:55:45.803Z,102867.03
2018-12-14T14:58:14.045Z,102869.61
2018-12-14T15:00:42.233Z,102868.39
2018-12-14T15:03:10.549Z,102871.83
2018-12-14T15:05:39.129Z,102878.38
2018-12-14T15:08:07.487Z,102890.94
2018-12-14T15:10:35.684Z,102879.23
2018-12-14T15:13:03.945Z,102878.32
2018-12-14T15:15:32.128Z,102879.23
2018-12-14T15:18:00.358Z,102876.30
2018-12-14T15:20:29.141Z,102887.36
2018-12-14T15:22:57.376Z,102880.44
2018-12-14T15:25:25.610Z,102890.74
2018-12-14T15:27:53.804Z,102887.66
2018-12-14T15:30:22.014Z,102889.98
2018-12-14T15:32:50.263Z,102878.59
2018-12-14T15:35:18.508Z,102873.59
2018-12-14T15:37:46.908Z,102877.73
2018-12-14T15:40:15.096Z,102881.41
2018-12-14T15:42:43.316Z,102878.02
2018-12-14T15:45:13.212Z,102888.17
2018-12-14T15:47:43.567Z,102900.35
2018-12-14T15:50:11.817Z,102895.25
2018-12-14T15:52:40.004Z,102902.17
2018-12-14T15:55:08.447Z,102895.06
2018-12-14T15:57:36.658Z,102892.44
2018-12-14T16:00:05.756Z,102885.33
2018-12-14T16:02:33.964Z,102886.81
2018-12-14T16:05:02.176Z,102883.11
2018-12-14T16:07:30.418Z,102882.48
2018-12-14T16:09:58.637Z,102881.50
2018-12-14T16:12:26.972Z,102877.84
2018-12-14T16:14:55.228Z,102876.58
2018-12-14T16:17:23.515Z,102867.81
2018-12-14T16:19:51.905Z,102863.47
2018-12-14T16:22:20.278Z,102867.77
2018-12-14T16:24:48.593Z,102868.22
2018-12-14T16:27:17.025Z,102859.69
2018-12-14T16:29:45.315Z,102863.69
2018-12-14T16:32:13.516Z,102870.12
2018-12-14T16:34:41.756Z,102866.52
2018-12-14T16:37:09.952Z,102876.36
2018-12-14T16:39:38.511Z,102886.03
2018-12-14T16:42:06.945Z,102889.41
2018-12-14T16:44:35.172Z,102898.75
2018-12-14T16:47:03.532Z,102908.50
2018-12-14T16:49:31.740Z,102889.60
2018-12-14T16:51:59.928Z,102877.87
2018-12-14T16:54:28.157Z,102879.19
2018-12-14T16:56:56.406Z,102873.34
2018-12-14T16:59:24.609Z,102877.63
2018-12-14T17:01:52.842Z,102883.30
2018-12-14T17:04:21.108Z,102881.23
2018-12-14T17:06:49.400Z,102882.49
2018-12-14T17:09:17.711Z,102890.05
2018-12-14T17:11:45.910Z,102887.65
2018-12-14T17:14:14.138Z,102887.20
2018-12-14T17:16:42.369Z,102891.61
2018-12-14T17:19:10.614Z,102894.13
2018-12-14T17:21:38.802Z,102886.75
2018-12-14T17:24:07.061Z,102887.55
2018-12-14T17:26:35.301Z,102903.92
2018-12-14T17:29:03.798Z,102917.16
2018-12-14T17:31:32.015Z,102904.39
2018-12-14T17:34:00.432Z,102911.01
2018-12-14T17:36:28.636Z,102912.13
2018-12-14T17:38:56.864Z,102907.63
2018-12-14T17:41:25.097Z,102902.94
2018-12-14T17:43:53.281Z,102897.84
2018-12-14T17:46:21.642Z,102894.74
2018-12-14T17:48:49.832Z,102906.48
2018-12-14T17:51:18.077Z,102896.17
2018-12-14T17:53:46.492Z,102907.06
2018-12-14T17:56:14.677Z,102910.72
2018-12-14T17:58:42.915Z,102909.92
2018-12-14T18:01:11.109Z,102906.43
2018-12-14T18:03:39.441Z,102907.08
2018-12-14T18:06:07.721Z,102909.69
2018-12-14T18:08:35.937Z,102907.69
2018-12-14T18:11:04.316Z,102907.63
2018-12-14T18:13:32.543Z,102915.42
2018-12-14T18:16:00.745Z,102913.36
2018-12-14T18:18:29.019Z,102918.17
2018-12-14T18:20:57.332Z,102922.87
2018-12-14T18:23:25.553Z,102919.14
2018-12-14T18:25:53.789Z,102924.06
2018-12-14T18:28:22.145Z,102917.94
2018-12-14T18:30:50.340Z,102912.21
2018-12-14T18:33:18.562Z,102916.91
2018-12-14T18:35:46.811Z,102925.09
2018-12-14T18:38:15.016Z,102921.27
2018-12-14T18:40:43.231Z,102924.92
2018-12-14T18:43:11.588Z,102916.85
2018-12-14T18:45:39.777Z,102918.63
2018-12-14T18:48:07.988Z,102924.66
2018-12-14T18:50:36.226Z,102926.53
2018-12-14T18:53:04.477Z,102923.20
2018-12-14T18:55:32.692Z,102929.93
2018-12-14T18:58:00.876Z,102925.61
2018-12-14T19:00:29.208Z,102918.69
2018-12-14T19:02:57.481Z,102921.27
2018-12-14T19:05:25.751Z,102921.83
2018-12-14T19:07:54.004Z,102918.80
2018-12-14T19:10:22.248Z,102925.27
2018-12-14T19:12:50.432Z,102918.17
2018-12-14T19:15:19.044Z,102921.31
2018-12-14T19:17:47.301Z,102928.82
2018-12-14T19:20:15.496Z,102928.77
2018-12-14T19:22:43.716Z,102936.50
2018-12-14T19:25:11.969Z,102940.28
2018-12-14T19:27:40.193Z,102940.96
2018-12-14T19:30:08.609Z,102936.27
2018-12-14T19:32:36.984Z,102937.06
2018-12-14T19:35:05.973Z,102938.06
2018-12-14T19:37:34.341Z,102937.88
2018-12-14T19:40:02.666Z,102942.64
2018-12-14T19:42:30.884Z,102946.42
2018-12-14T19:44:59.237Z,102939.55
2018-12-14T19:47:27.556Z,102934.91
2018-12-14T19:49:55.888Z,102932.33
2018-12-14T19:52:24.252Z,102932.33
2018-12-14T19:54:52.636Z,102928.55
2018-12-14T19:57:20.902Z,102928.89
2018-12-14T19:59:49.096Z,102918.30
2018-12-14T20:02:17.329Z,102919.50
2018-12-14T20:04:45.768Z,102913.31
2018-12-14T20:07:13.948Z,102908.39
2018-12-14T20:09:42.208Z,102915.60
2018-12-14T20:12:10.392Z,102921.38
2018-12-14T20:14:38.700Z,102925.34
2018-12-14T20:17:06.964Z,102918.41
2018-12-14T20:19:35.289Z,102929.92
2018-12-14T20:22:03.512Z,102923.84
2018-12-14T20:24:31.760Z,102931.17
2018-12-14T20:27:00.020Z,102925.28
2018-12-14T20:29:28.314Z,102932.77
2018-12-14T20:31:56.653Z,102937.88
2018-12-14T20:34:24.900Z,102940.80
2018-12-14T20:36:53.230Z,102947.09
2018-12-14T20:39:21.703Z,102948.34
2018-12-14T20:41:50.791Z,102957.91
2018-12-14T20:44:19.048Z,102957.84
2018-12-14T20:46:47.324Z,102961.28
2018-12-14T20:49:15.539Z,102963.92
2018-12-14T20:51:43.813Z,102968.69
2018-12-14T20:54:12.232Z,102963.30
2018-12-14T20:56:40.473Z,102963.54
2018-12-14T20:59:08.713Z,102969.20
2018-12-14T21:01:36.929Z,102971.72
2018-12-14T21:04:05.333Z,102967.70
2018-12-14T21:06:33.582Z,102971.70
2018-12-14T21:09:01.873Z,102970.04
2018-12-14T21:11:30.070Z,102969.73
2018-12-14T21:13:58.337Z,102968.02
2018-12-14T21:16:26.577Z,102968.48
2018-12-14T21:18:54.805Z,102974.55
2018-12-14T21:21:23.081Z,102974.55
2018-12-14T21:23:51.283Z,102981.49
2018-12-14T21:26:19.479Z,102987.27
2018-12-14T21:28:47.737Z,102980.52
2018-12-14T21:31:15.925Z,102985.43
2018-12-14T21:33:44.252Z,102980.95
2018-12-14T21:36:12.530Z,102990.22
2018-12-14T21:38:40.724Z,102986.11
2018-12-14T21:41:08.925Z,102985.52
2018-12-14T21:43:37.161Z,102980.83
2018-12-14T21:46:05.384Z,102983.22
2018-12-14T21:48:33.664Z,102975.78
2018-12-14T21:51:02.050Z,102976.86
2018-12-14T21:53:30.276Z,102971.61
2018-12-14T21:55:58.485Z,102964.18
2018-12-14T21:58:26.711Z,102971.00
2018-12-14T22:00:54.961Z,102971.58
2018-12-14T22:03:23.192Z,102968.26
2018-12-14T22:05:51.428Z,102977.08
2018-12-14T22:08:19.625Z,102971.70
2018-12-14T22:10:47.863Z,102963.69
2018-12-14T22:13:16.161Z,102957.84
2018-12-14T22:15:44.356Z,102961.22
2018-12-14T22:18:12.748Z,102961.28
2018-12-14T22:20:41.013Z,102969.12
2018-12-14T22:23:09.253Z,102967.80
2018-12-14T22:25:37.516Z,102968.84
2018-12-14T22:28:05.763Z,102971.30
2018-12-14T22:30:34.052Z,102969.06
2018-12-14T22:33:02.293Z,102969.18
2018-12-14T22:35:30.536Z,102977.08
2018-12-14T22:37:58.832Z,102976.89
2018-12-14T22:40:27.025Z,102979.63
2018-12-14T22:42:55.856Z,102975.11
2018-12-14T22:45:24.040Z,102976.83
2018-12-14T22:47:52.264Z,102980.36
2018-12-14T22:50:20.480Z,102971.15
2018-12-14T22:52:48.729Z,102977.72
2018-12-14T22:55:16.953Z,102976.21
2018-12-14T22:57:45.149Z,102977.02
2018-12-14T23:00:16.517Z,102980.33
2018-12-14T23:02:44.710Z,102978.27
2018-12-14T23:05:13.060Z,102980.79
2018-12-14T23:07:41.256Z,102976.89
2018-12-14T23:10:09.698Z,102962.77
2018-12-14T23:12:38.044Z,102962.70
2018-12-14T23:15:06.812Z,102965.69
2018-12-14T23:17:35.101Z,102964.30
2018-12-14T23:20:03.447Z,102970.47
2018-12-14T23:22:31.760Z,102965.89
2018-12-14T23:25:00.007Z,102969.76
2018-12-14T23:27:28.208Z,102971.14
2018-12-14T23:29:56.389Z,102965.52
2018-12-14T23:32:24.641Z,102967.03
2018-12-14T23:34:52.845Z,102959.20
2018-12-14T23:37:21.156Z,102966.81
2018-12-14T23:39:49.469Z,102970.26
2018-12-14T23:42:17.680Z,102975.42
2018-12-14T23:44:45.912Z,102970.78
2018-12-14T23:47:14.172Z,102967.52
2018-12-14T23:49:42.432Z,102967.92
2018-12-14T23:52:10.668Z,102973.09
2018-12-14T23:54:38.866Z,102962.43
2018-12-14T23:57:12.239Z,102965.13
2018-12-14T23:59:37.268Z,102967.71
